Time;durP1;ratioP1;P1;durP2;ratioP2;P2;SDS_P1;SDS_P2;PMS_P1;PMS_P2;Temp;Humidity;BMP_temperature;BMP_pressure;BME280_temperature;BME280_humidity;BME280_pressure;Samples;Min_cycle;Max_cycle;Signal;HPM_P1;HPM_P2
2021/03/23 00:01:40;;;;;;;22.35;12.57;;;6.30;99.90;;;;;;10422948;28;20050;-76
2021/03/23 00:06:42;;;;;;;23.48;12.65;;;6.30;99.90;;;;;;10425298;28;20080;-77
2021/03/23 00:11:44;;;;;;;22.25;11.50;;;6.30;99.90;;;;;;10426322;28;20084;-76
2021/03/23 00:16:46;;;;;;;23.88;13.20;;;6.30;99.90;;;;;;10449350;28;20128;-77
2021/03/23 00:21:48;;;;;;;21.83;13.02;;;6.30;99.90;;;;;;10440995;28;20041;-76
2021/03/23 00:26:49;;;;;;;22.67;13.07;;;6.40;99.90;;;;;;10437634;28;20077;-76
2021/03/23 00:31:51;;;;;;;23.83;13.45;;;6.40;99.90;;;;;;10445315;28;20049;-76
2021/03/23 00:36:53;;;;;;;20.23;13.35;;;6.40;99.90;;;;;;10419389;28;20060;-76
2021/03/23 00:41:54;;;;;;;22.92;13.52;;;6.30;99.90;;;;;;10418759;28;20069;-77
2021/03/23 00:46:56;;;;;;;25.10;13.15;;;6.30;99.90;;;;;;10412083;28;20211;-76
2021/03/23 00:51:57;;;;;;;24.73;13.73;;;6.30;99.90;;;;;;10429544;28;20080;-76
2021/03/23 00:56:59;;;;;;;27.77;14.77;;;6.30;99.90;;;;;;10435688;28;20169;-76
2021/03/23 01:02:00;;;;;;;24.27;14.18;;;6.20;99.90;;;;;;10441133;28;20073;-76
2021/03/23 01:07:03;;;;;;;22.08;14.20;;;6.20;99.90;;;;;;10412785;28;20051;-76
2021/03/23 01:12:08;;;;;;;23.08;13.57;;;6.30;99.90;;;;;;10432645;28;20084;-76
2021/03/23 01:17:09;;;;;;;24.25;14.65;;;6.30;99.90;;;;;;10443948;28;20455;-76
2021/03/23 01:22:11;;;;;;;22.60;13.05;;;6.20;99.90;;;;;;10414795;28;20103;-76
2021/03/23 01:27:13;;;;;;;21.52;13.18;;;6.10;99.90;;;;;;10441478;28;20068;-76
2021/03/23 01:32:14;;;;;;;24.52;13.20;;;6.00;99.90;;;;;;10416753;28;20456;-76
2021/03/23 01:37:19;;;;;;;24.70;14.48;;;6.10;99.90;;;;;;10410094;28;20045;-76
2021/03/23 01:42:21;;;;;;;20.40;13.07;;;6.10;99.90;;;;;;10407921;28;20855;-76
2021/03/23 01:47:22;;;;;;;23.92;13.07;;;6.10;99.90;;;;;;10414401;28;20100;-76
2021/03/23 01:52:28;;;;;;;22.67;13.20;;;6.10;99.90;;;;;;10435872;28;20044;-76
2021/03/23 01:57:32;;;;;;;22.65;13.45;;;6.10;99.90;;;;;;10421468;28;20108;-76
2021/03/23 02:02:34;;;;;;;22.02;13.02;;;6.10;99.90;;;;;;10413481;28;20112;-76
2021/03/23 02:07:42;;;;;;;22.40;12.23;;;6.10;99.90;;;;;;10390509;28;20491;-76
2021/03/23 02:12:45;;;;;;;22.98;12.60;;;6.10;99.90;;;;;;10407784;28;20077;-76
2021/03/23 02:18:23;;;;;;;22.85;13.27;;;6.10;99.90;;;;;;10431910;28;20049;-76
2021/03/23 02:23:29;;;;;;;21.83;14.00;;;6.10;99.90;;;;;;10410572;28;20065;-76
2021/03/23 02:28:38;;;;;;;24.83;13.52;;;5.80;99.90;;;;;;10431718;28;20136;-76
2021/03/23 02:33:39;;;;;;;24.73;13.38;;;5.50;99.90;;;;;;10435994;28;20083;-76
2021/03/23 02:38:41;;;;;;;25.65;12.93;;;5.50;99.90;;;;;;10441053;28;20069;-76
2021/03/23 02:43:42;;;;;;;23.73;12.82;;;5.50;99.90;;;;;;10419247;28;20069;-76
2021/03/23 02:48:44;;;;;;;25.27;13.98;;;5.50;99.90;;;;;;10430856;28;20056;-76
2021/03/23 02:53:46;;;;;;;23.40;13.00;;;5.50;99.90;;;;;;10408053;28;20144;-76
2021/03/23 02:58:48;;;;;;;26.92;12.88;;;5.50;99.90;;;;;;10442946;28;20077;-76
2021/03/23 03:03:49;;;;;;;24.52;13.50;;;5.50;99.90;;;;;;10412586;28;20095;-77
2021/03/23 03:08:51;;;;;;;31.88;15.05;;;5.50;99.90;;;;;;10440527;28;20053;-76
2021/03/23 03:13:52;;;;;;;30.65;14.38;;;5.40;99.90;;;;;;10438376;28;20519;-76
2021/03/23 03:18:54;;;;;;;31.15;17.42;;;5.40;99.90;;;;;;10456795;28;20041;-76
2021/03/23 03:23:55;;;;;;;24.92;13.75;;;5.40;99.90;;;;;;10447327;28;20053;-76
2021/03/23 03:28:57;;;;;;;25.38;12.90;;;5.30;99.90;;;;;;10447147;28;20063;-76
2021/03/23 03:34:00;;;;;;;26.90;13.88;;;5.40;99.90;;;;;;10432444;28;20085;-76
2021/03/23 03:39:04;;;;;;;28.83;15.05;;;5.40;99.90;;;;;;10442688;28;20495;-76
2021/03/23 03:44:06;;;;;;;35.72;15.95;;;5.30;99.90;;;;;;10430750;28;20517;-76
2021/03/23 03:49:07;;;;;;;27.35;14.75;;;5.30;99.90;;;;;;10426227;28;20053;-76
2021/03/23 03:54:09;;;;;;;27.83;14.13;;;5.30;99.90;;;;;;10419152;28;20486;-76
2021/03/23 03:59:10;;;;;;;28.83;14.90;;;5.20;99.90;;;;;;10438443;28;20048;-77
2021/03/23 04:04:12;;;;;;;30.10;15.70;;;5.30;99.90;;;;;;10450139;28;20056;-76
2021/03/23 04:09:14;;;;;;;34.17;19.10;;;5.40;99.90;;;;;;10423086;28;20099;-76
2021/03/23 04:14:15;;;;;;;42.83;21.33;;;5.50;99.90;;;;;;10421693;28;20525;-76
2021/03/23 04:19:17;;;;;;;36.80;19.40;;;5.40;99.90;;;;;;10427503;28;20056;-76
2021/03/23 04:24:19;;;;;;;33.40;18.17;;;5.30;99.90;;;;;;10448213;28;20048;-76
2021/03/23 04:29:20;;;;;;;38.25;20.33;;;5.30;99.90;;;;;;10410541;28;20057;-76
2021/03/23 04:34:22;;;;;;;35.67;19.13;;;5.30;99.90;;;;;;10409895;28;20136;-76
2021/03/23 04:39:36;;;;;;;35.10;18.30;;;5.30;99.90;;;;;;10394453;28;20554;-76
2021/03/23 04:44:38;;;;;;;29.67;18.10;;;5.30;99.90;;;;;;10409975;28;20080;-76
2021/03/23 04:49:41;;;;;;;30.42;17.85;;;5.40;99.90;;;;;;10409716;28;20438;-76
2021/03/23 04:54:42;;;;;;;37.22;20.00;;;5.30;99.90;;;;;;10409088;28;20073;-76
2021/03/23 04:59:44;;;;;;;34.45;20.00;;;5.30;99.90;;;;;;10391504;28;20542;-77
2021/03/23 05:04:45;;;;;;;36.45;19.83;;;5.30;99.90;;;;;;10408617;28;20060;-76
2021/03/23 05:09:57;;;;;;;32.83;19.88;;;5.20;99.90;;;;;;10408302;28;20665;-76
2021/03/23 05:14:59;;;;;;;36.60;21.70;;;5.20;99.90;;;;;;10408422;28;20050;-76
2021/03/23 05:20:01;;;;;;;33.88;20.48;;;5.20;99.90;;;;;;10408390;28;20060;-76
2021/03/23 05:25:03;;;;;;;31.50;20.23;;;5.20;99.90;;;;;;10413580;28;20045;-76
2021/03/23 05:30:06;;;;;;;41.83;25.83;;;5.20;99.90;;;;;;10449192;28;20053;-76
2021/03/23 05:35:09;;;;;;;37.60;24.70;;;5.20;99.90;;;;;;10448597;28;20076;-76
2021/03/23 05:40:24;;;;;;;34.88;21.17;;;5.20;99.90;;;;;;10448583;28;20051;-77
2021/03/23 05:45:36;;;;;;;32.88;21.08;;;5.30;99.90;;;;;;10448326;28;20569;-77
2021/03/23 05:50:39;;;;;;;37.47;22.00;;;5.20;99.90;;;;;;10448316;28;20052;-76
2021/03/23 05:55:44;;;;;;;42.83;23.85;;;5.10;99.90;;;;;;10448493;28;20081;-76
2021/03/23 06:00:56;;;;;;;50.97;28.48;;;5.10;99.90;;;;;;10448456;28;20049;-76
2021/03/23 06:06:20;;;;;;;34.97;20.90;;;5.20;99.90;;;;;;10430787;28;20053;-76
2021/03/23 06:11:57;;;;;;;42.25;25.05;;;5.30;99.90;;;;;;10448075;28;20060;-76
2021/03/23 06:17:10;;;;;;;39.50;24.63;;;5.30;99.90;;;;;;10437206;28;20136;-76
2021/03/23 06:22:11;;;;;;;32.75;22.60;;;5.40;99.90;;;;;;10447830;28;20053;-76
2021/03/23 06:27:41;;;;;;;35.22;22.52;;;5.50;99.90;;;;;;10447231;28;20083;-76
2021/03/23 06:32:46;;;;;;;32.30;22.27;;;5.50;99.90;;;;;;10447775;28;20056;-76
2021/03/23 06:37:47;;;;;;;31.60;21.10;;;5.50;99.90;;;;;;10447427;28;20371;-76
2021/03/23 06:42:52;;;;;;;34.40;22.25;;;5.60;99.90;;;;;;10448828;28;20049;-77
2021/03/23 06:47:57;;;;;;;34.33;23.35;;;5.60;99.90;;;;;;10450075;28;20103;-76
2021/03/23 06:53:18;;;;;;;36.90;23.00;;;5.50;99.90;;;;;;10455470;28;20124;-76
2021/03/23 06:58:23;;;;;;;35.30;22.93;;;5.60;99.90;;;;;;10455720;28;20103;-76
2021/03/23 07:03:25;;;;;;;31.67;21.10;;;5.60;99.90;;;;;;10454912;28;20069;-76
2021/03/23 07:08:27;;;;;;;35.25;22.25;;;5.60;99.90;;;;;;10454565;28;20045;-76
2021/03/23 07:13:30;;;;;;;37.03;22.23;;;5.80;99.90;;;;;;10454996;28;20071;-76
2021/03/23 07:18:52;;;;;;;36.28;24.52;;;5.90;99.90;;;;;;10454431;28;20059;-76
2021/03/23 07:24:07;;;;;;;33.97;23.02;;;5.90;99.90;;;;;;10454060;28;20096;-76
2021/03/23 07:29:11;;;;;;;38.03;24.48;;;6.00;99.90;;;;;;10453729;28;20080;-76
2021/03/23 07:34:16;;;;;;;35.58;22.98;;;6.00;99.90;;;;;;10453652;28;20102;-76
2021/03/23 07:39:32;;;;;;;30.38;21.92;;;6.00;99.90;;;;;;10453495;28;20103;-76
2021/03/23 07:44:40;;;;;;;30.83;21.48;;;6.00;99.90;;;;;;10435984;28;20056;-76
2021/03/23 07:49:47;;;;;;;32.97;21.50;;;6.00;99.90;;;;;;10435427;28;20538;-76
2021/03/23 07:54:49;;;;;;;35.70;22.23;;;6.10;99.90;;;;;;10453502;28;20053;-76
2021/03/23 08:00:00;;;;;;;28.00;19.95;;;6.20;99.90;;;;;;10453013;28;20115;-76
2021/03/23 08:05:26;;;;;;;26.85;19.77;;;6.20;99.90;;;;;;10453387;28;20127;-76
2021/03/23 08:10:31;;;;;;;28.15;20.27;;;6.40;99.90;;;;;;10434754;28;20099;-76
2021/03/23 08:16:01;;;;;;;29.02;20.35;;;6.50;99.90;;;;;;10452338;28;20426;-76
2021/03/23 08:21:41;;;;;;;27.63;19.23;;;6.60;99.90;;;;;;10434904;28;20044;-76
2021/03/23 08:27:01;;;;;;;24.98;19.23;;;6.70;99.90;;;;;;10434924;28;20052;-76
2021/03/23 08:32:10;;;;;;;26.15;18.60;;;6.70;99.90;;;;;;10451602;28;20049;-76
2021/03/23 08:37:41;;;;;;;30.45;19.73;;;6.90;99.90;;;;;;10451466;28;20487;-76
2021/03/23 08:42:47;;;;;;;27.95;18.88;;;7.00;99.30;;;;;;10451307;28;20049;-76
2021/03/23 08:47:53;;;;;;;28.27;18.58;;;7.20;98.50;;;;;;10451507;28;20119;-76
2021/03/23 08:52:57;;;;;;;25.85;19.40;;;7.40;97.00;;;;;;10450909;28;20076;-76
2021/03/23 08:58:03;;;;;;;26.80;18.88;;;7.50;96.30;;;;;;10433124;28;20557;-76
2021/03/23 09:03:10;;;;;;;25.75;18.02;;;7.50;94.30;;;;;;10450400;28;20049;-76
2021/03/23 09:08:21;;;;;;;25.60;18.75;;;7.60;93.40;;;;;;10450810;28;20103;-76
2021/03/23 09:13:36;;;;;;;26.42;18.83;;;7.50;93.10;;;;;;10430862;28;20079;-76
2021/03/23 09:19:08;;;;;;;27.25;18.52;;;7.50;91.70;;;;;;10449566;28;20494;-76
2021/03/23 09:24:30;;;;;;;26.77;17.65;;;7.70;91.90;;;;;;10449815;28;20048;-76
2021/03/23 09:29:31;;;;;;;26.60;18.45;;;7.70;91.70;;;;;;10408619;28;20129;-76
2021/03/23 09:35:08;;;;;;;27.30;18.58;;;7.90;92.00;;;;;;10407905;28;20081;-76
2021/03/23 09:40:24;;;;;;;27.33;18.50;;;7.90;90.60;;;;;;10390092;28;20486;-76
2021/03/23 09:45:34;;;;;;;23.58;18.75;;;8.20;90.60;;;;;;10407918;28;20053;-76
2021/03/23 09:50:51;;;;;;;26.02;19.83;;;8.30;89.80;;;;;;10407540;28;20049;-76
2021/03/23 09:55:52;;;;;;;27.83;18.40;;;8.20;89.20;;;;;;10407444;28;20108;-76
2021/03/23 10:01:28;;;;;;;26.75;18.70;;;8.20;89.20;;;;;;10389588;28;20049;-76
2021/03/23 10:06:45;;;;;;;29.25;17.85;;;8.10;88.50;;;;;;10406711;28;20144;-76
2021/03/23 10:11:47;;;;;;;23.58;17.50;;;8.40;86.60;;;;;;10406956;28;20079;-76
2021/03/23 10:16:48;;;;;;;22.25;16.90;;;8.40;86.00;;;;;;10407032;28;20053;-76
2021/03/23 10:21:53;;;;;;;23.98;17.50;;;8.30;85.30;;;;;;10408226;28;20140;-76
2021/03/23 10:26:55;;;;;;;24.80;17.33;;;8.30;84.10;;;;;;10436551;28;20138;-76
2021/03/23 10:31:59;;;;;;;22.20;16.80;;;8.30;86.00;;;;;;10456191;28;20057;-76
2021/03/23 10:37:04;;;;;;;22.10;17.30;;;8.50;84.80;;;;;;10456045;28;20045;-76
2021/03/23 10:42:24;;;;;;;21.45;17.30;;;8.60;83.40;;;;;;10455632;28;20376;-76
2021/03/23 10:47:33;;;;;;;22.60;16.55;;;9.00;82.90;;;;;;10437549;28;20084;-77
2021/03/23 10:52:35;;;;;;;21.63;16.77;;;9.10;80.50;;;;;;10455552;28;20053;-76
2021/03/23 10:57:38;;;;;;;21.77;16.17;;;9.50;79.80;;;;;;10437523;28;20045;-76
2021/03/23 11:02:40;;;;;;;24.73;16.58;;;9.80;75.80;;;;;;10437464;28;20111;-76
2021/03/23 11:07:45;;;;;;;21.45;16.00;;;9.60;75.60;;;;;;10454889;28;20059;-76
2021/03/23 11:12:46;;;;;;;24.27;16.35;;;9.80;75.70;;;;;;10437187;28;20474;-76
2021/03/23 11:17:50;;;;;;;20.75;15.45;;;10.00;73.10;;;;;;10454260;28;20076;-76
2021/03/23 11:22:53;;;;;;;21.55;15.82;;;10.10;71.80;;;;;;10454141;28;20052;-77
2021/03/23 11:27:56;;;;;;;21.45;15.68;;;10.30;71.70;;;;;;10454187;28;20107;-76
2021/03/23 11:32:57;;;;;;;22.95;16.58;;;10.30;70.70;;;;;;10455031;28;20081;-75
2021/03/23 11:38:01;;;;;;;20.38;15.10;;;10.60;68.00;;;;;;10453591;28;20379;-76
2021/03/23 11:43:02;;;;;;;22.02;15.90;;;10.90;68.90;;;;;;10454843;28;20057;-76
2021/03/23 11:48:09;;;;;;;21.17;14.88;;;11.00;66.10;;;;;;10453687;28;20080;-76
2021/03/23 11:53:12;;;;;;;19.85;14.70;;;10.90;66.10;;;;;;10453291;28;20061;-76
2021/03/23 11:58:17;;;;;;;20.38;14.05;;;10.90;65.90;;;;;;10452786;28;20451;-76
2021/03/23 12:03:19;;;;;;;27.63;15.43;;;11.10;64.40;;;;;;10452514;28;20445;-76
2021/03/23 12:08:30;;;;;;;21.00;15.50;;;10.90;64.00;;;;;;10443146;28;20494;-77
2021/03/23 12:13:58;;;;;;;24.83;15.52;;;10.90;64.50;;;;;;10450824;28;20084;-77
2021/03/23 12:19:04;;;;;;;21.15;15.15;;;11.00;63.70;;;;;;10436124;28;20680;-77
2021/03/23 12:24:06;;;;;;;22.55;15.18;;;11.50;63.30;;;;;;10409005;28;20061;-77
2021/03/23 12:29:07;;;;;;;20.35;14.48;;;11.40;62.20;;;;;;10374303;28;20503;-77
2021/03/23 12:34:09;;;;;;;20.58;14.95;;;11.40;62.30;;;;;;10449631;28;20049;-77
2021/03/23 12:39:11;;;;;;;22.83;13.90;;;11.80;60.10;;;;;;10449577;28;20499;-77
2021/03/23 12:44:12;;;;;;;18.98;14.43;;;12.10;60.50;;;;;;10430241;28;20057;-77
2021/03/23 12:49:14;;;;;;;20.77;13.85;;;11.80;59.70;;;;;;10412140;28;20104;-77
2021/03/23 12:54:40;;;;;;;19.50;15.40;;;11.60;59.60;;;;;;10425671;28;20124;-77
2021/03/23 12:59:42;;;;;;;20.27;15.13;;;10.90;59.70;;;;;;10392175;28;20053;-77
2021/03/23 13:04:43;;;;;;;24.15;15.70;;;10.80;61.90;;;;;;10407792;28;20092;-77
2021/03/23 13:09:51;;;;;;;25.30;16.23;;;11.20;60.80;;;;;;10380370;28;20105;-78
2021/03/23 13:14:53;;;;;;;20.38;16.17;;;11.60;60.70;;;;;;10395188;28;20110;-78
2021/03/23 13:19:54;;;;;;;22.88;16.40;;;11.80;59.20;;;;;;10465061;28;20098;-77
2021/03/23 13:25:02;;;;;;;22.30;17.17;;;11.90;59.20;;;;;;10463252;28;20522;-80
2021/03/23 13:30:09;;;;;;;25.58;17.98;;;11.70;59.10;;;;;;10445117;28;20102;-79
2021/03/23 13:35:13;;;;;;;21.48;16.25;;;11.90;58.40;;;;;;10445171;28;20132;-79
2021/03/23 13:40:24;;;;;;;24.23;18.27;;;11.60;59.20;;;;;;10447195;28;21528;-79
2021/03/23 13:45:34;;;;;;;22.95;17.73;;;11.80;58.40;;;;;;10438019;28;20497;-79
2021/03/23 13:50:35;;;;;;;25.40;18.38;;;12.00;58.00;;;;;;10450373;28;20049;-80
2021/03/23 13:55:38;;;;;;;25.50;17.83;;;12.10;57.00;;;;;;10471634;28;20132;-79
2021/03/23 14:00:42;;;;;;;23.98;18.38;;;11.80;56.50;;;;;;10469943;28;20443;-80
2021/03/23 14:05:44;;;;;;;25.05;18.17;;;11.50;57.40;;;;;;10406801;28;20085;-79
2021/03/23 14:10:47;;;;;;;21.42;16.80;;;11.80;58.00;;;;;;10411862;28;20083;-80
2021/03/23 14:15:49;;;;;;;23.98;17.88;;;12.10;56.70;;;;;;10439212;28;20057;-80
2021/03/23 14:20:53;;;;;;;25.17;17.92;;;11.90;56.50;;;;;;10438067;28;20453;-80
2021/03/23 14:25:56;;;;;;;23.27;17.35;;;11.80;56.70;;;;;;10437942;28;20057;-79
2021/03/23 14:31:00;;;;;;;25.98;17.55;;;11.80;57.00;;;;;;10425165;28;20049;-79
2021/03/23 14:36:02;;;;;;;24.95;17.15;;;11.90;56.70;;;;;;10414366;28;20083;-80
2021/03/23 14:41:13;;;;;;;21.23;17.08;;;12.00;56.60;;;;;;10444434;28;20060;-80
2021/03/23 14:46:26;;;;;;;23.67;17.27;;;11.90;56.50;;;;;;10412649;28;20137;-80
2021/03/23 14:51:32;;;;;;;25.38;17.20;;;11.80;56.80;;;;;;10409818;28;20509;-80
2021/03/23 14:56:38;;;;;;;27.02;18.17;;;11.40;57.50;;;;;;10410443;28;20506;-79
2021/03/23 15:01:39;;;;;;;26.63;17.90;;;11.50;57.20;;;;;;10431044;28;20046;-79
2021/03/23 15:06:41;;;;;;;23.55;16.13;;;11.40;56.90;;;;;;10404752;28;20072;-79
2021/03/23 15:11:45;;;;;;;26.08;17.10;;;11.20;56.90;;;;;;10405264;28;20107;-79
2021/03/23 15:16:47;;;;;;;24.65;16.40;;;11.10;56.90;;;;;;10397281;28;20053;-80
2021/03/23 15:21:49;;;;;;;19.98;15.77;;;10.90;57.30;;;;;;10384294;28;20042;-79
2021/03/23 15:26:51;;;;;;;23.20;16.13;;;10.90;58.10;;;;;;10394244;28;20115;-79
2021/03/23 15:31:54;;;;;;;21.92;16.75;;;11.20;58.10;;;;;;10405944;28;20072;-79
2021/03/23 15:36:56;;;;;;;22.40;16.33;;;11.30;57.70;;;;;;10409244;28;20049;-79
2021/03/23 15:42:01;;;;;;;24.25;17.30;;;11.30;57.50;;;;;;10395207;28;20085;-79
2021/03/23 15:47:02;;;;;;;27.08;17.30;;;11.50;57.20;;;;;;10387570;28;20084;-79
2021/03/23 15:52:05;;;;;;;24.40;15.82;;;11.50;56.10;;;;;;10390090;28;20411;-79
2021/03/23 15:57:08;;;;;;;25.20;16.20;;;11.40;57.60;;;;;;10409183;28;20048;-79
2021/03/23 16:02:12;;;;;;;27.40;17.40;;;11.40;56.80;;;;;;10377593;28;20124;-79
2021/03/23 16:07:27;;;;;;;23.45;16.35;;;11.40;56.90;;;;;;10388276;28;20060;-80
2021/03/23 16:12:28;;;;;;;21.63;15.82;;;11.20;57.10;;;;;;10387492;28;20136;-78
2021/03/23 16:17:32;;;;;;;21.60;15.02;;;11.00;58.10;;;;;;10420319;28;20057;-80
2021/03/23 16:22:37;;;;;;;25.00;16.17;;;10.90;58.30;;;;;;10441565;28;20048;-80
2021/03/23 16:27:39;;;;;;;25.35;15.63;;;10.80;58.30;;;;;;10413608;28;20136;-80
2021/03/23 16:32:41;;;;;;;20.88;14.05;;;10.60;58.90;;;;;;10445197;28;20573;-80
2021/03/23 16:37:43;;;;;;;19.70;14.85;;;10.40;59.50;;;;;;10430362;28;20064;-80
2021/03/23 16:42:44;;;;;;;21.73;14.45;;;10.20;59.90;;;;;;10442995;28;20175;-80
2021/03/23 16:47:46;;;;;;;20.58;13.88;;;10.20;60.00;;;;;;10448411;28;20134;-81
2021/03/23 16:52:49;;;;;;;21.20;13.30;;;10.20;60.10;;;;;;10445077;28;20103;-80
2021/03/23 16:57:51;;;;;;;17.85;12.55;;;10.30;61.30;;;;;;10446131;28;20049;-81
2021/03/23 17:02:53;;;;;;;20.55;12.35;;;10.30;61.00;;;;;;10427333;28;20136;-81
2021/03/23 17:07:56;;;;;;;24.20;13.65;;;10.10;61.20;;;;;;10442235;28;20053;-81
2021/03/23 17:12:58;;;;;;;23.02;13.20;;;10.00;61.60;;;;;;10437263;28;20060;-80
2021/03/23 17:18:02;;;;;;;18.80;13.23;;;9.80;62.10;;;;;;10422359;28;20057;-80
2021/03/23 17:23:06;;;;;;;17.45;13.02;;;9.50;63.20;;;;;;10420024;28;20179;-80
2021/03/23 17:28:13;;;;;;;19.35;11.52;;;9.30;64.70;;;;;;10407754;28;20045;-79
2021/03/23 17:33:23;;;;;;;20.65;12.55;;;9.10;67.30;;;;;;10413729;28;20073;-80
2021/03/23 17:38:25;;;;;;;;;;;8.90;69.40;;;;;;10433087;28;20045;-81
2021/03/23 17:43:28;;;;;;;17.00;11.38;;;8.60;70.30;;;;;;10440859;28;19965;-81
2021/03/23 17:48:34;;;;;;;24.23;13.50;;;8.30;72.50;;;;;;10436039;28;20095;-81
2021/03/23 17:53:39;;;;;;;20.77;12.40;;;8.20;74.50;;;;;;10447573;28;20049;-81
2021/03/23 17:58:40;;;;;;;19.48;11.80;;;8.10;75.10;;;;;;10446726;28;20085;-81
2021/03/23 18:03:42;;;;;;;17.65;11.20;;;7.90;76.90;;;;;;10429391;28;20080;-81
2021/03/23 18:08:44;;;;;;;15.73;10.50;;;7.70;79.70;;;;;;10447205;28;20135;-81
2021/03/23 18:13:46;;;;;;;18.60;11.85;;;7.60;81.60;;;;;;10446335;28;20053;-81
2021/03/23 18:18:48;;;;;;;20.50;13.55;;;7.50;84.00;;;;;;10446560;28;20060;-80
2021/03/23 18:23:54;;;;;;;23.67;13.80;;;7.40;87.00;;;;;;10428886;28;20418;-80
2021/03/23 18:28:57;;;;;;;25.48;15.30;;;7.30;91.30;;;;;;10430959;28;20510;-80
2021/03/23 18:34:11;;;;;;;21.63;13.27;;;7.20;91.80;;;;;;10434767;28;20045;-80
2021/03/23 18:39:13;;;;;;;21.02;14.55;;;7.00;93.30;;;;;;10426555;28;20045;-81
2021/03/23 18:44:14;;;;;;;22.48;13.45;;;6.90;94.40;;;;;;10417609;28;20115;-80
2021/03/23 18:49:16;;;;;;;19.27;12.85;;;6.80;96.60;;;;;;10452633;28;20095;-80
2021/03/23 18:54:18;;;;;;;19.33;13.05;;;6.70;98.40;;;;;;10453518;28;20077;-81
2021/03/23 18:59:19;;;;;;;19.35;13.88;;;6.50;98.90;;;;;;10449883;28;20053;-80
2021/03/23 19:04:20;;;;;;;21.35;13.32;;;6.40;99.90;;;;;;10453011;28;20049;-79
2021/03/23 19:09:22;;;;;;;18.70;14.20;;;6.30;99.90;;;;;;10446876;28;20119;-83
2021/03/23 19:14:23;;;;;;;19.90;13.88;;;6.10;99.90;;;;;;10427151;28;20638;-81
2021/03/23 19:19:25;;;;;;;18.73;14.27;;;6.00;99.90;;;;;;10397712;28;20124;-81
2021/03/23 19:24:26;;;;;;;21.05;14.00;;;6.00;99.90;;;;;;10411244;28;20061;-82
2021/03/23 19:29:45;;;;;;;20.33;14.07;;;5.90;99.90;;;;;;10411025;28;20049;-81
2021/03/23 19:34:46;;;;;;;24.25;16.55;;;5.70;99.90;;;;;;10411581;28;20494;-82
2021/03/23 19:39:48;;;;;;;24.83;15.43;;;5.60;99.90;;;;;;10411815;28;20049;-81
2021/03/23 19:44:51;;;;;;;21.85;14.77;;;5.40;99.90;;;;;;10411766;28;20077;-82
2021/03/23 19:49:52;;;;;;;22.27;15.38;;;5.40;99.90;;;;;;10393918;28;20081;-82
2021/03/23 19:54:53;;;;;;;20.08;14.40;;;5.20;99.90;;;;;;10410596;28;20103;-81
2021/03/23 19:59:55;;;;;;;21.23;14.73;;;5.10;99.90;;;;;;10410240;28;20042;-82
2021/03/23 20:04:56;;;;;;;21.23;13.90;;;5.00;99.90;;;;;;10392390;28;20535;-83
2021/03/23 20:09:58;;;;;;;20.90;15.05;;;4.90;99.90;;;;;;10410838;28;20111;-82
2021/03/23 20:14:59;;;;;;;26.60;15.98;;;4.90;99.90;;;;;;10413851;28;20128;-82
2021/03/23 20:20:01;;;;;;;22.88;15.85;;;4.60;99.90;;;;;;10433391;28;20080;-82
2021/03/23 20:25:05;;;;;;;21.90;16.27;;;4.50;99.90;;;;;;10433335;28;20490;-82
2021/03/23 20:30:07;;;;;;;24.95;16.48;;;4.50;99.90;;;;;;10450451;28;20159;-82
2021/03/23 20:35:16;;;;;;;24.02;16.10;;;4.40;99.90;;;;;;10450190;28;20049;-82
2021/03/23 20:40:20;;;;;;;25.15;16.45;;;4.40;99.90;;;;;;10449913;28;20080;-82
2021/03/23 20:45:26;;;;;;;26.52;18.60;;;4.40;99.90;;;;;;10432541;28;20507;-82
2021/03/23 20:50:31;;;;;;;26.40;17.08;;;4.30;99.90;;;;;;10432802;28;20057;-82
2021/03/23 20:55:33;;;;;;;21.48;16.50;;;4.20;99.90;;;;;;10449585;28;20055;-81
2021/03/23 21:00:36;;;;;;;22.33;15.65;;;4.10;99.90;;;;;;10449603;28;20069;-81
2021/03/23 21:05:50;;;;;;;27.23;16.65;;;4.10;99.90;;;;;;10448621;28;20057;-82
2021/03/23 21:11:06;;;;;;;21.63;16.50;;;4.00;99.90;;;;;;10432023;28;20085;-82
2021/03/23 21:16:12;;;;;;;23.73;15.18;;;3.90;99.90;;;;;;10431338;28;20049;-82
2021/03/23 21:21:17;;;;;;;21.25;15.90;;;3.80;99.90;;;;;;10448905;28;20135;-82
2021/03/23 21:26:19;;;;;;;23.40;16.60;;;3.70;99.90;;;;;;10430572;28;20049;-82
2021/03/23 21:31:29;;;;;;;24.85;16.05;;;3.70;99.90;;;;;;10448452;28;20503;-82
2021/03/23 21:36:31;;;;;;;21.73;15.98;;;3.60;99.90;;;;;;10448386;28;20128;-82
2021/03/23 21:41:37;;;;;;;28.30;18.65;;;3.50;99.90;;;;;;10448745;28;20080;-82
2021/03/23 21:46:39;;;;;;;22.13;16.65;;;3.50;99.90;;;;;;10447918;28;20472;-81
2021/03/23 21:51:41;;;;;;;26.38;17.83;;;3.40;99.90;;;;;;10452712;28;20445;-80
2021/03/23 21:56:43;;;;;;;26.85;17.30;;;3.30;99.90;;;;;;10448471;28;20076;-82
2021/03/23 22:01:45;;;;;;;25.35;18.48;;;3.20;99.90;;;;;;10430153;28;20099;-82
2021/03/23 22:06:50;;;;;;;26.55;18.45;;;3.00;99.90;;;;;;10430654;28;20056;-82
2021/03/23 22:11:52;;;;;;;25.52;18.38;;;3.00;99.90;;;;;;10447935;28;20583;-81
2021/03/23 22:16:54;;;;;;;27.63;17.27;;;2.90;99.90;;;;;;10429120;28;20445;-81
2021/03/23 22:21:57;;;;;;;22.52;16.98;;;2.80;99.90;;;;;;10446510;28;20095;-82
2021/03/23 22:26:58;;;;;;;26.40;18.30;;;2.80;99.90;;;;;;10429247;28;20091;-81
2021/03/23 22:32:00;;;;;;;26.85;18.65;;;2.90;99.90;;;;;;10446817;28;20152;-82
2021/03/23 22:37:02;;;;;;;28.20;18.70;;;2.70;99.90;;;;;;10446702;28;20052;-82
2021/03/23 22:42:04;;;;;;;26.30;18.70;;;2.70;99.90;;;;;;10446691;28;20111;-81
2021/03/23 22:47:06;;;;;;;26.52;18.65;;;2.60;99.90;;;;;;10428827;28;20072;-81
2021/03/23 22:52:08;;;;;;;28.70;18.90;;;2.60;99.90;;;;;;10429151;28;20056;-82
2021/03/23 22:57:10;;;;;;;28.50;19.17;;;2.60;99.90;;;;;;10446421;28;20045;-81
2021/03/23 23:02:11;;;;;;;26.65;18.50;;;2.50;99.90;;;;;;10443221;28;20064;-82
2021/03/23 23:07:13;;;;;;;28.13;20.15;;;2.50;99.90;;;;;;10433425;28;20056;-82
2021/03/23 23:12:14;;;;;;;27.02;20.17;;;2.40;99.90;;;;;;10426500;28;20077;-81
2021/03/23 23:17:16;;;;;;;25.85;18.88;;;2.20;99.90;;;;;;10443331;28;20564;-81
2021/03/23 23:22:17;;;;;;;26.17;19.30;;;2.10;99.90;;;;;;10444221;28;20844;-81
2021/03/23 23:27:20;;;;;;;29.10;20.45;;;2.00;99.90;;;;;;10401716;28;20049;-81
2021/03/23 23:32:21;;;;;;;26.98;18.95;;;1.90;99.90;;;;;;10417330;28;20084;-81
2021/03/23 23:37:23;;;;;;;31.67;19.70;;;2.00;99.90;;;;;;10450916;28;20076;-81
2021/03/23 23:42:24;;;;;;;30.50;19.77;;;2.00;99.90;;;;;;10450726;28;20530;-82
2021/03/23 23:47:26;;;;;;;28.00;18.88;;;1.90;99.90;;;;;;10450762;28;20045;-81
2021/03/23 23:52:28;;;;;;;24.88;19.38;;;1.90;99.90;;;;;;10450721;28;20079;-81
2021/03/23 23:57:30;;;;;;;30.90;20.83;;;1.90;99.90;;;;;;10450473;28;20399;-81
